Marche-en-Famenne, Belgium
Current Conditions -  °F | °C
As of 8:50 PM on Friday 31 Oct 2014 (Local Time) from EBLG Reporting Station
Clear Clear  
Wind Chill: 59°   Ceiling: Unl
Heat Index: 59°   Visibility: 6mi
Dew Point: 50°   Wind: 10mph
Humidity: 72%   Direction: 170°S
Pressure: 30.18"   Gusts: NA
Location:  50.23°N, 5.34°E
Report Text: EBLG 311950Z 17009KT CAVOK 15/10 Q1022 NOSIG
Loading
Personal Weather Stations






























Interactive Weather Map
Tropical Storm Tracking
New forecast layout! Learn more

10-Day Weather Forecast

Advertisements
Track Severe Weather on mobile